sensor_id;sensor_type;location;lat;lon;timestamp;P1;durP1;ratioP1;P2;durP2;ratioP2
15061;SDS011;7630;50.306;8.566;2022-12-18T00:02:34;64.40;;;44.30;;
15061;SDS011;7630;50.306;8.566;2022-12-18T00:06:36;66.60;;;44.73;;
15061;SDS011;7630;50.306;8.566;2022-12-18T00:10:37;37.80;;;31.17;;
15061;SDS011;7630;50.306;8.566;2022-12-18T00:14:38;47.70;;;34.63;;
15061;SDS011;7630;50.306;8.566;2022-12-18T00:18:41;49.10;;;35.30;;
15061;SDS011;7630;50.306;8.566;2022-12-18T00:22:43;42.53;;;35.37;;
15061;SDS011;7630;50.306;8.566;2022-12-18T00:26:44;41.97;;;30.70;;
15061;SDS011;7630;50.306;8.566;2022-12-18T00:30:45;45.20;;;35.93;;
15061;SDS011;7630;50.306;8.566;2022-12-18T00:34:47;41.83;;;31.60;;
15061;SDS011;7630;50.306;8.566;2022-12-18T00:38:48;41.70;;;29.90;;
15061;SDS011;7630;50.306;8.566;2022-12-18T00:42:49;39.50;;;29.93;;
15061;SDS011;7630;50.306;8.566;2022-12-18T00:46:56;39.43;;;30.80;;
15061;SDS011;7630;50.306;8.566;2022-12-18T00:50:57;48.07;;;33.20;;
15061;SDS011;7630;50.306;8.566;2022-12-18T00:54:58;45.40;;;29.77;;
15061;SDS011;7630;50.306;8.566;2022-12-18T00:59:01;49.93;;;35.97;;
15061;SDS011;7630;50.306;8.566;2022-12-18T01:03:02;39.13;;;30.90;;
15061;SDS011;7630;50.306;8.566;2022-12-18T01:07:04;52.57;;;33.90;;
15061;SDS011;7630;50.306;8.566;2022-12-18T01:11:09;40.37;;;30.73;;
15061;SDS011;7630;50.306;8.566;2022-12-18T01:15:13;43.80;;;31.33;;
15061;SDS011;7630;50.306;8.566;2022-12-18T01:19:15;29.67;;;25.43;;
15061;SDS011;7630;50.306;8.566;2022-12-18T01:23:16;36.17;;;26.70;;
15061;SDS011;7630;50.306;8.566;2022-12-18T01:27:18;34.60;;;27.13;;
15061;SDS011;7630;50.306;8.566;2022-12-18T01:31:20;40.17;;;27.27;;
15061;SDS011;7630;50.306;8.566;2022-12-18T01:35:23;37.80;;;26.03;;
15061;SDS011;7630;50.306;8.566;2022-12-18T01:39:24;35.43;;;26.93;;
15061;SDS011;7630;50.306;8.566;2022-12-18T01:47:51;38.00;;;29.30;;
15061;SDS011;7630;50.306;8.566;2022-12-18T01:51:55;41.07;;;27.87;;
15061;SDS011;7630;50.306;8.566;2022-12-18T01:55:56;34.30;;;26.40;;
15061;SDS011;7630;50.306;8.566;2022-12-18T02:00:04;35.10;;;27.10;;
15061;SDS011;7630;50.306;8.566;2022-12-18T02:04:21;38.30;;;26.80;;
15061;SDS011;7630;50.306;8.566;2022-12-18T02:08:29;36.60;;;25.43;;
15061;SDS011;7630;50.306;8.566;2022-12-18T02:12:36;37.30;;;26.37;;
15061;SDS011;7630;50.306;8.566;2022-12-18T02:20:45;32.23;;;24.13;;
15061;SDS011;7630;50.306;8.566;2022-12-18T02:24:59;33.20;;;27.03;;
15061;SDS011;7630;50.306;8.566;2022-12-18T02:29:05;34.27;;;27.43;;
15061;SDS011;7630;50.306;8.566;2022-12-18T02:33:12;37.13;;;26.13;;
15061;SDS011;7630;50.306;8.566;2022-12-18T02:37:15;34.80;;;26.07;;
15061;SDS011;7630;50.306;8.566;2022-12-18T02:41:18;40.17;;;27.17;;
15061;SDS011;7630;50.306;8.566;2022-12-18T02:45:20;40.03;;;27.53;;
15061;SDS011;7630;50.306;8.566;2022-12-18T02:49:40;37.53;;;28.17;;
15061;SDS011;7630;50.306;8.566;2022-12-18T02:53:55;40.47;;;29.53;;
15061;SDS011;7630;50.306;8.566;2022-12-18T02:58:11;34.53;;;26.77;;
15061;SDS011;7630;50.306;8.566;2022-12-18T03:02:21;40.13;;;29.93;;
15061;SDS011;7630;50.306;8.566;2022-12-18T03:06:26;37.07;;;29.10;;
15061;SDS011;7630;50.306;8.566;2022-12-18T03:10:30;39.37;;;29.83;;
15061;SDS011;7630;50.306;8.566;2022-12-18T03:14:33;40.00;;;29.50;;
15061;SDS011;7630;50.306;8.566;2022-12-18T03:22:45;40.37;;;29.67;;
15061;SDS011;7630;50.306;8.566;2022-12-18T03:26:51;38.03;;;29.33;;
15061;SDS011;7630;50.306;8.566;2022-12-18T03:30:58;41.00;;;29.10;;
15061;SDS011;7630;50.306;8.566;2022-12-18T03:35:03;44.90;;;28.67;;
15061;SDS011;7630;50.306;8.566;2022-12-18T03:39:05;41.93;;;29.20;;
15061;SDS011;7630;50.306;8.566;2022-12-18T03:43:11;43.87;;;29.30;;
15061;SDS011;7630;50.306;8.566;2022-12-18T03:47:27;36.07;;;28.43;;
15061;SDS011;7630;50.306;8.566;2022-12-18T03:55:51;42.20;;;29.90;;
15061;SDS011;7630;50.306;8.566;2022-12-18T04:00:02;43.00;;;26.87;;
15061;SDS011;7630;50.306;8.566;2022-12-18T04:04:01;43.47;;;29.73;;
15061;SDS011;7630;50.306;8.566;2022-12-18T04:08:04;51.27;;;34.03;;
15061;SDS011;7630;50.306;8.566;2022-12-18T04:12:06;51.03;;;32.20;;
15061;SDS011;7630;50.306;8.566;2022-12-18T04:16:07;49.90;;;32.77;;
15061;SDS011;7630;50.306;8.566;2022-12-18T04:20:10;49.10;;;36.33;;
15061;SDS011;7630;50.306;8.566;2022-12-18T04:24:12;45.73;;;34.27;;
15061;SDS011;7630;50.306;8.566;2022-12-18T04:28:16;45.17;;;31.77;;
15061;SDS011;7630;50.306;8.566;2022-12-18T04:32:18;45.10;;;33.77;;
15061;SDS011;7630;50.306;8.566;2022-12-18T04:36:22;45.30;;;32.67;;
15061;SDS011;7630;50.306;8.566;2022-12-18T04:40:23;45.07;;;35.40;;
15061;SDS011;7630;50.306;8.566;2022-12-18T04:44:26;43.30;;;31.47;;
15061;SDS011;7630;50.306;8.566;2022-12-18T04:48:27;47.33;;;34.80;;
15061;SDS011;7630;50.306;8.566;2022-12-18T04:52:29;44.33;;;32.40;;
15061;SDS011;7630;50.306;8.566;2022-12-18T04:56:33;45.83;;;31.17;;
15061;SDS011;7630;50.306;8.566;2022-12-18T05:00:35;41.77;;;30.77;;
15061;SDS011;7630;50.306;8.566;2022-12-18T05:04:36;47.73;;;32.77;;
15061;SDS011;7630;50.306;8.566;2022-12-18T05:08:38;44.63;;;32.20;;
15061;SDS011;7630;50.306;8.566;2022-12-18T05:12:39;41.93;;;30.50;;
15061;SDS011;7630;50.306;8.566;2022-12-18T05:16:42;43.27;;;32.33;;
15061;SDS011;7630;50.306;8.566;2022-12-18T05:20:44;42.53;;;34.70;;
15061;SDS011;7630;50.306;8.566;2022-12-18T05:24:45;42.73;;;30.10;;
15061;SDS011;7630;50.306;8.566;2022-12-18T05:28:46;44.73;;;33.57;;
15061;SDS011;7630;50.306;8.566;2022-12-18T05:32:47;43.90;;;30.73;;
15061;SDS011;7630;50.306;8.566;2022-12-18T05:36:48;50.40;;;32.43;;
15061;SDS011;7630;50.306;8.566;2022-12-18T05:40:50;43.87;;;31.20;;
15061;SDS011;7630;50.306;8.566;2022-12-18T05:44:52;45.47;;;31.77;;
15061;SDS011;7630;50.306;8.566;2022-12-18T05:48:53;47.70;;;33.40;;
15061;SDS011;7630;50.306;8.566;2022-12-18T05:52:54;50.67;;;35.83;;
15061;SDS011;7630;50.306;8.566;2022-12-18T05:56:55;45.57;;;32.63;;
15061;SDS011;7630;50.306;8.566;2022-12-18T06:00:56;42.87;;;33.17;;
15061;SDS011;7630;50.306;8.566;2022-12-18T06:04:58;53.90;;;35.50;;
15061;SDS011;7630;50.306;8.566;2022-12-18T06:08:59;60.33;;;43.50;;
15061;SDS011;7630;50.306;8.566;2022-12-18T06:13:02;53.93;;;39.17;;
15061;SDS011;7630;50.306;8.566;2022-12-18T06:17:03;49.20;;;35.23;;
15061;SDS011;7630;50.306;8.566;2022-12-18T06:21:04;69.13;;;41.60;;
15061;SDS011;7630;50.306;8.566;2022-12-18T06:25:05;60.63;;;40.00;;
15061;SDS011;7630;50.306;8.566;2022-12-18T06:29:08;53.57;;;36.40;;
15061;SDS011;7630;50.306;8.566;2022-12-18T06:33:09;52.10;;;34.80;;
15061;SDS011;7630;50.306;8.566;2022-12-18T06:37:10;48.13;;;34.37;;
15061;SDS011;7630;50.306;8.566;2022-12-18T06:41:16;51.70;;;36.43;;
15061;SDS011;7630;50.306;8.566;2022-12-18T06:45:15;63.13;;;45.40;;
15061;SDS011;7630;50.306;8.566;2022-12-18T06:49:17;45.07;;;32.57;;
15061;SDS011;7630;50.306;8.566;2022-12-18T06:53:20;53.33;;;37.27;;
15061;SDS011;7630;50.306;8.566;2022-12-18T06:57:21;46.23;;;32.90;;
15061;SDS011;7630;50.306;8.566;2022-12-18T07:01:22;51.97;;;38.57;;
15061;SDS011;7630;50.306;8.566;2022-12-18T07:05:24;48.33;;;35.53;;
15061;SDS011;7630;50.306;8.566;2022-12-18T07:09:25;55.57;;;35.70;;
15061;SDS011;7630;50.306;8.566;2022-12-18T07:13:27;55.07;;;37.77;;
15061;SDS011;7630;50.306;8.566;2022-12-18T07:17:28;49.57;;;37.30;;
15061;SDS011;7630;50.306;8.566;2022-12-18T07:21:30;55.10;;;38.47;;
15061;SDS011;7630;50.306;8.566;2022-12-18T07:25:34;55.13;;;37.07;;
15061;SDS011;7630;50.306;8.566;2022-12-18T07:29:36;58.17;;;40.23;;
15061;SDS011;7630;50.306;8.566;2022-12-18T07:33:38;58.23;;;35.53;;
15061;SDS011;7630;50.306;8.566;2022-12-18T07:37:40;48.57;;;36.60;;
15061;SDS011;7630;50.306;8.566;2022-12-18T07:41:41;59.27;;;44.47;;
15061;SDS011;7630;50.306;8.566;2022-12-18T07:45:48;49.90;;;36.97;;
15061;SDS011;7630;50.306;8.566;2022-12-18T07:49:51;50.80;;;35.10;;
15061;SDS011;7630;50.306;8.566;2022-12-18T07:53:52;71.27;;;48.63;;
15061;SDS011;7630;50.306;8.566;2022-12-18T07:57:53;60.90;;;39.30;;
15061;SDS011;7630;50.306;8.566;2022-12-18T08:01:56;67.70;;;44.47;;
15061;SDS011;7630;50.306;8.566;2022-12-18T08:05:58;67.53;;;45.57;;
15061;SDS011;7630;50.306;8.566;2022-12-18T08:10:04;47.20;;;33.47;;
15061;SDS011;7630;50.306;8.566;2022-12-18T08:14:07;54.93;;;40.97;;
15061;SDS011;7630;50.306;8.566;2022-12-18T08:18:09;48.90;;;34.17;;
15061;SDS011;7630;50.306;8.566;2022-12-18T08:22:13;43.37;;;34.43;;
15061;SDS011;7630;50.306;8.566;2022-12-18T08:26:15;47.90;;;34.97;;
15061;SDS011;7630;50.306;8.566;2022-12-18T08:30:16;48.17;;;33.70;;
15061;SDS011;7630;50.306;8.566;2022-12-18T08:34:17;39.60;;;27.83;;
15061;SDS011;7630;50.306;8.566;2022-12-18T08:38:19;44.70;;;30.80;;
15061;SDS011;7630;50.306;8.566;2022-12-18T08:42:20;48.17;;;33.80;;
15061;SDS011;7630;50.306;8.566;2022-12-18T08:46:40;43.37;;;33.40;;
15061;SDS011;7630;50.306;8.566;2022-12-18T08:50:42;43.27;;;31.77;;
15061;SDS011;7630;50.306;8.566;2022-12-18T08:54:43;60.30;;;38.37;;
15061;SDS011;7630;50.306;8.566;2022-12-18T08:58:44;41.80;;;30.97;;
15061;SDS011;7630;50.306;8.566;2022-12-18T09:02:46;53.27;;;39.17;;
15061;SDS011;7630;50.306;8.566;2022-12-18T09:06:47;38.23;;;28.87;;
15061;SDS011;7630;50.306;8.566;2022-12-18T09:10:49;46.63;;;29.40;;
15061;SDS011;7630;50.306;8.566;2022-12-18T09:14:51;40.20;;;29.60;;
15061;SDS011;7630;50.306;8.566;2022-12-18T09:18:52;40.67;;;30.97;;
15061;SDS011;7630;50.306;8.566;2022-12-18T09:22:55;39.00;;;28.30;;
15061;SDS011;7630;50.306;8.566;2022-12-18T09:26:56;35.97;;;28.97;;
15061;SDS011;7630;50.306;8.566;2022-12-18T09:30:58;42.03;;;27.50;;
15061;SDS011;7630;50.306;8.566;2022-12-18T09:34:59;37.50;;;28.50;;
15061;SDS011;7630;50.306;8.566;2022-12-18T09:39:03;39.67;;;28.27;;
15061;SDS011;7630;50.306;8.566;2022-12-18T09:43:06;39.97;;;28.50;;
15061;SDS011;7630;50.306;8.566;2022-12-18T09:51:18;42.17;;;30.40;;
15061;SDS011;7630;50.306;8.566;2022-12-18T09:55:36;36.50;;;25.70;;
15061;SDS011;7630;50.306;8.566;2022-12-18T09:59:37;39.77;;;28.37;;
15061;SDS011;7630;50.306;8.566;2022-12-18T10:03:42;39.07;;;26.77;;
15061;SDS011;7630;50.306;8.566;2022-12-18T10:16:36;36.90;;;27.70;;
15061;SDS011;7630;50.306;8.566;2022-12-18T10:24:36;44.53;;;33.80;;
15061;SDS011;7630;50.306;8.566;2022-12-18T10:28:36;35.90;;;29.03;;
15061;SDS011;7630;50.306;8.566;2022-12-18T10:32:40;41.80;;;30.20;;
15061;SDS011;7630;50.306;8.566;2022-12-18T10:36:42;40.13;;;29.90;;
15061;SDS011;7630;50.306;8.566;2022-12-18T10:40:54;38.47;;;30.30;;
15061;SDS011;7630;50.306;8.566;2022-12-18T10:45:03;48.77;;;34.63;;
15061;SDS011;7630;50.306;8.566;2022-12-18T10:49:18;39.57;;;32.57;;
15061;SDS011;7630;50.306;8.566;2022-12-18T10:53:33;47.27;;;34.63;;
15061;SDS011;7630;50.306;8.566;2022-12-18T10:57:38;46.03;;;32.27;;
15061;SDS011;7630;50.306;8.566;2022-12-18T11:01:48;50.87;;;35.57;;
15061;SDS011;7630;50.306;8.566;2022-12-18T11:10:14;55.03;;;39.07;;
15061;SDS011;7630;50.306;8.566;2022-12-18T11:14:21;52.90;;;37.63;;
15061;SDS011;7630;50.306;8.566;2022-12-18T11:22:32;45.73;;;32.43;;
15061;SDS011;7630;50.306;8.566;2022-12-18T11:26:35;59.10;;;41.10;;
15061;SDS011;7630;50.306;8.566;2022-12-18T11:30:37;58.10;;;41.50;;
15061;SDS011;7630;50.306;8.566;2022-12-18T11:34:38;54.97;;;38.93;;
15061;SDS011;7630;50.306;8.566;2022-12-18T11:38:42;59.03;;;41.50;;
15061;SDS011;7630;50.306;8.566;2022-12-18T11:42:48;59.33;;;39.70;;
15061;SDS011;7630;50.306;8.566;2022-12-18T11:46:55;57.83;;;38.33;;
15061;SDS011;7630;50.306;8.566;2022-12-18T11:51:02;65.80;;;40.80;;
15061;SDS011;7630;50.306;8.566;2022-12-18T11:55:13;69.33;;;45.10;;
15061;SDS011;7630;50.306;8.566;2022-12-18T11:59:26;67.43;;;43.07;;
15061;SDS011;7630;50.306;8.566;2022-12-18T12:03:39;59.67;;;41.73;;
15061;SDS011;7630;50.306;8.566;2022-12-18T12:12:10;65.77;;;43.80;;
15061;SDS011;7630;50.306;8.566;2022-12-18T12:47:04;71.37;;;43.13;;
15061;SDS011;7630;50.306;8.566;2022-12-18T12:51:14;68.37;;;44.60;;
15061;SDS011;7630;50.306;8.566;2022-12-18T12:55:24;67.57;;;43.77;;
15061;SDS011;7630;50.306;8.566;2022-12-18T13:08:05;68.13;;;39.10;;
15061;SDS011;7630;50.306;8.566;2022-12-18T13:12:10;72.43;;;43.30;;
15061;SDS011;7630;50.306;8.566;2022-12-18T13:16:32;68.57;;;42.93;;
15061;SDS011;7630;50.306;8.566;2022-12-18T13:20:39;67.67;;;42.77;;
15061;SDS011;7630;50.306;8.566;2022-12-18T13:24:38;78.30;;;47.80;;
15061;SDS011;7630;50.306;8.566;2022-12-18T13:33:05;83.27;;;42.67;;
15061;SDS011;7630;50.306;8.566;2022-12-18T13:41:34;78.17;;;45.90;;
15061;SDS011;7630;50.306;8.566;2022-12-18T13:45:37;72.63;;;42.10;;
15061;SDS011;7630;50.306;8.566;2022-12-18T13:49:41;68.33;;;41.20;;
15061;SDS011;7630;50.306;8.566;2022-12-18T13:53:48;68.47;;;42.33;;
15061;SDS011;7630;50.306;8.566;2022-12-18T13:58:04;64.43;;;41.83;;
15061;SDS011;7630;50.306;8.566;2022-12-18T14:02:12;69.90;;;44.17;;
15061;SDS011;7630;50.306;8.566;2022-12-18T14:06:18;67.13;;;40.63;;
15061;SDS011;7630;50.306;8.566;2022-12-18T14:10:20;69.00;;;38.10;;
15061;SDS011;7630;50.306;8.566;2022-12-18T14:14:24;70.60;;;44.77;;
15061;SDS011;7630;50.306;8.566;2022-12-18T14:18:41;71.87;;;44.50;;
15061;SDS011;7630;50.306;8.566;2022-12-18T14:22:58;73.23;;;44.33;;
15061;SDS011;7630;50.306;8.566;2022-12-18T14:27:22;65.97;;;41.57;;
15061;SDS011;7630;50.306;8.566;2022-12-18T14:31:29;71.07;;;45.97;;
15061;SDS011;7630;50.306;8.566;2022-12-18T14:35:29;81.77;;;51.30;;
15061;SDS011;7630;50.306;8.566;2022-12-18T14:39:33;69.97;;;41.53;;
15061;SDS011;7630;50.306;8.566;2022-12-18T14:43:35;74.73;;;45.77;;
15061;SDS011;7630;50.306;8.566;2022-12-18T14:47:38;114.37;;;71.37;;
15061;SDS011;7630;50.306;8.566;2022-12-18T14:51:41;67.80;;;41.73;;
15061;SDS011;7630;50.306;8.566;2022-12-18T14:55:46;68.37;;;40.73;;
15061;SDS011;7630;50.306;8.566;2022-12-18T14:59:48;76.60;;;42.37;;
15061;SDS011;7630;50.306;8.566;2022-12-18T15:03:51;74.90;;;43.90;;
15061;SDS011;7630;50.306;8.566;2022-12-18T15:07:54;64.90;;;40.43;;
15061;SDS011;7630;50.306;8.566;2022-12-18T15:12:00;87.10;;;46.93;;
15061;SDS011;7630;50.306;8.566;2022-12-18T15:16:02;73.93;;;46.47;;
15061;SDS011;7630;50.306;8.566;2022-12-18T15:20:09;78.43;;;45.37;;
15061;SDS011;7630;50.306;8.566;2022-12-18T15:24:16;71.10;;;41.53;;
15061;SDS011;7630;50.306;8.566;2022-12-18T15:28:22;76.97;;;44.90;;
15061;SDS011;7630;50.306;8.566;2022-12-18T15:32:25;73.80;;;44.37;;
15061;SDS011;7630;50.306;8.566;2022-12-18T15:36:26;64.57;;;42.13;;
15061;SDS011;7630;50.306;8.566;2022-12-18T15:40:28;78.30;;;43.07;;
15061;SDS011;7630;50.306;8.566;2022-12-18T15:44:31;67.63;;;42.77;;
15061;SDS011;7630;50.306;8.566;2022-12-18T15:48:33;67.30;;;44.90;;
15061;SDS011;7630;50.306;8.566;2022-12-18T15:52:39;75.50;;;45.23;;
15061;SDS011;7630;50.306;8.566;2022-12-18T15:56:43;80.70;;;53.13;;
15061;SDS011;7630;50.306;8.566;2022-12-18T16:01:03;72.20;;;45.53;;
15061;SDS011;7630;50.306;8.566;2022-12-18T16:05:08;77.33;;;46.87;;
15061;SDS011;7630;50.306;8.566;2022-12-18T16:09:17;79.40;;;48.03;;
15061;SDS011;7630;50.306;8.566;2022-12-18T16:13:21;76.97;;;57.25;;
15061;SDS011;7630;50.306;8.566;2022-12-18T16:17:22;79.17;;;47.03;;
15061;SDS011;7630;50.306;8.566;2022-12-18T16:21:24;81.00;;;54.27;;
15061;SDS011;7630;50.306;8.566;2022-12-18T16:25:27;84.63;;;47.87;;
15061;SDS011;7630;50.306;8.566;2022-12-18T16:29:29;92.70;;;54.00;;
15061;SDS011;7630;50.306;8.566;2022-12-18T16:33:30;82.83;;;45.97;;
15061;SDS011;7630;50.306;8.566;2022-12-18T16:37:31;67.70;;;41.37;;
15061;SDS011;7630;50.306;8.566;2022-12-18T16:41:33;71.27;;;42.80;;
15061;SDS011;7630;50.306;8.566;2022-12-18T16:45:34;63.27;;;40.10;;
15061;SDS011;7630;50.306;8.566;2022-12-18T16:49:35;65.73;;;38.40;;
15061;SDS011;7630;50.306;8.566;2022-12-18T16:53:37;55.03;;;35.77;;
15061;SDS011;7630;50.306;8.566;2022-12-18T16:57:38;56.77;;;36.77;;
15061;SDS011;7630;50.306;8.566;2022-12-18T17:01:39;65.23;;;38.73;;
15061;SDS011;7630;50.306;8.566;2022-12-18T17:05:41;68.80;;;42.70;;
15061;SDS011;7630;50.306;8.566;2022-12-18T17:09:43;64.43;;;40.10;;
15061;SDS011;7630;50.306;8.566;2022-12-18T17:13:46;63.67;;;37.37;;
15061;SDS011;7630;50.306;8.566;2022-12-18T17:17:47;61.53;;;39.07;;
15061;SDS011;7630;50.306;8.566;2022-12-18T17:21:49;67.97;;;40.70;;
15061;SDS011;7630;50.306;8.566;2022-12-18T17:25:53;65.03;;;37.23;;
15061;SDS011;7630;50.306;8.566;2022-12-18T17:29:55;61.77;;;38.87;;
15061;SDS011;7630;50.306;8.566;2022-12-18T17:33:56;65.33;;;40.97;;
15061;SDS011;7630;50.306;8.566;2022-12-18T17:37:58;50.60;;;31.80;;
15061;SDS011;7630;50.306;8.566;2022-12-18T17:41:59;59.97;;;40.40;;
15061;SDS011;7630;50.306;8.566;2022-12-18T17:46:03;70.23;;;41.17;;
15061;SDS011;7630;50.306;8.566;2022-12-18T17:50:08;63.57;;;39.73;;
15061;SDS011;7630;50.306;8.566;2022-12-18T17:54:09;57.33;;;34.27;;
15061;SDS011;7630;50.306;8.566;2022-12-18T17:58:11;59.37;;;37.57;;
15061;SDS011;7630;50.306;8.566;2022-12-18T18:02:13;56.77;;;37.23;;
15061;SDS011;7630;50.306;8.566;2022-12-18T18:06:16;67.70;;;43.10;;
15061;SDS011;7630;50.306;8.566;2022-12-18T18:10:18;62.37;;;36.33;;
15061;SDS011;7630;50.306;8.566;2022-12-18T18:14:19;63.80;;;38.80;;
15061;SDS011;7630;50.306;8.566;2022-12-18T18:18:20;73.17;;;40.50;;
15061;SDS011;7630;50.306;8.566;2022-12-18T18:22:23;81.10;;;57.47;;
15061;SDS011;7630;50.306;8.566;2022-12-18T18:26:25;66.20;;;42.17;;
15061;SDS011;7630;50.306;8.566;2022-12-18T18:30:30;58.57;;;37.73;;
15061;SDS011;7630;50.306;8.566;2022-12-18T18:34:32;68.57;;;41.83;;
15061;SDS011;7630;50.306;8.566;2022-12-18T18:38:33;70.63;;;44.57;;
15061;SDS011;7630;50.306;8.566;2022-12-18T18:42:34;71.17;;;44.57;;
15061;SDS011;7630;50.306;8.566;2022-12-18T18:46:36;72.25;;;53.28;;
15061;SDS011;7630;50.306;8.566;2022-12-18T18:50:37;78.07;;;43.93;;
15061;SDS011;7630;50.306;8.566;2022-12-18T18:54:38;62.93;;;40.93;;
15061;SDS011;7630;50.306;8.566;2022-12-18T18:58:42;63.27;;;38.23;;
15061;SDS011;7630;50.306;8.566;2022-12-18T19:02:44;65.60;;;39.40;;
15061;SDS011;7630;50.306;8.566;2022-12-18T19:06:45;66.42;;;50.78;;
15061;SDS011;7630;50.306;8.566;2022-12-18T19:10:57;71.40;;;44.87;;
15061;SDS011;7630;50.306;8.566;2022-12-18T19:14:57;66.87;;;42.17;;
15061;SDS011;7630;50.306;8.566;2022-12-18T19:18:59;80.63;;;49.53;;
15061;SDS011;7630;50.306;8.566;2022-12-18T19:23:02;67.57;;;40.53;;
15061;SDS011;7630;50.306;8.566;2022-12-18T19:27:03;72.70;;;42.53;;
15061;SDS011;7630;50.306;8.566;2022-12-18T19:31:06;60.43;;;39.27;;
15061;SDS011;7630;50.306;8.566;2022-12-18T19:35:09;69.00;;;42.90;;
15061;SDS011;7630;50.306;8.566;2022-12-18T19:39:12;64.73;;;39.53;;
15061;SDS011;7630;50.306;8.566;2022-12-18T19:43:15;88.13;;;53.17;;
15061;SDS011;7630;50.306;8.566;2022-12-18T19:47:17;79.43;;;49.50;;
15061;SDS011;7630;50.306;8.566;2022-12-18T19:51:20;70.23;;;41.20;;
15061;SDS011;7630;50.306;8.566;2022-12-18T19:55:23;60.80;;;42.23;;
15061;SDS011;7630;50.306;8.566;2022-12-18T19:59:24;64.43;;;40.07;;
15061;SDS011;7630;50.306;8.566;2022-12-18T20:03:25;54.90;;;36.83;;
15061;SDS011;7630;50.306;8.566;2022-12-18T20:07:29;64.67;;;39.57;;
15061;SDS011;7630;50.306;8.566;2022-12-18T20:11:31;62.87;;;40.03;;
15061;SDS011;7630;50.306;8.566;2022-12-18T20:15:35;66.93;;;40.57;;
15061;SDS011;7630;50.306;8.566;2022-12-18T20:19:38;61.43;;;40.20;;
15061;SDS011;7630;50.306;8.566;2022-12-18T20:23:40;62.53;;;41.60;;
15061;SDS011;7630;50.306;8.566;2022-12-18T20:27:43;56.80;;;36.77;;
15061;SDS011;7630;50.306;8.566;2022-12-18T20:31:49;64.87;;;40.63;;
15061;SDS011;7630;50.306;8.566;2022-12-18T20:35:51;66.40;;;44.93;;
15061;SDS011;7630;50.306;8.566;2022-12-18T20:39:53;61.33;;;40.27;;
15061;SDS011;7630;50.306;8.566;2022-12-18T20:43:55;64.27;;;41.60;;
15061;SDS011;7630;50.306;8.566;2022-12-18T20:47:57;64.13;;;41.43;;
15061;SDS011;7630;50.306;8.566;2022-12-18T20:52:00;72.20;;;43.83;;
15061;SDS011;7630;50.306;8.566;2022-12-18T20:56:11;64.40;;;38.40;;
15061;SDS011;7630;50.306;8.566;2022-12-18T21:00:11;70.63;;;44.47;;
15061;SDS011;7630;50.306;8.566;2022-12-18T21:04:20;72.17;;;43.13;;
15061;SDS011;7630;50.306;8.566;2022-12-18T21:08:20;70.43;;;45.77;;
15061;SDS011;7630;50.306;8.566;2022-12-18T21:12:21;68.57;;;41.73;;
15061;SDS011;7630;50.306;8.566;2022-12-18T21:16:38;71.73;;;42.63;;
15061;SDS011;7630;50.306;8.566;2022-12-18T21:20:46;69.30;;;42.83;;
15061;SDS011;7630;50.306;8.566;2022-12-18T21:24:48;75.70;;;48.10;;
15061;SDS011;7630;50.306;8.566;2022-12-18T21:28:54;68.87;;;43.87;;
15061;SDS011;7630;50.306;8.566;2022-12-18T21:32:56;68.90;;;40.97;;
15061;SDS011;7630;50.306;8.566;2022-12-18T21:36:58;65.73;;;40.00;;
15061;SDS011;7630;50.306;8.566;2022-12-18T21:41:04;69.73;;;41.20;;
15061;SDS011;7630;50.306;8.566;2022-12-18T21:45:08;69.03;;;44.10;;
15061;SDS011;7630;50.306;8.566;2022-12-18T21:49:11;62.03;;;41.00;;
15061;SDS011;7630;50.306;8.566;2022-12-18T21:53:22;66.30;;;44.33;;
15061;SDS011;7630;50.306;8.566;2022-12-18T21:57:24;62.00;;;39.80;;
15061;SDS011;7630;50.306;8.566;2022-12-18T22:01:25;72.47;;;40.97;;
15061;SDS011;7630;50.306;8.566;2022-12-18T22:05:28;63.87;;;41.87;;
15061;SDS011;7630;50.306;8.566;2022-12-18T22:09:29;59.13;;;40.10;;
15061;SDS011;7630;50.306;8.566;2022-12-18T22:13:31;65.90;;;42.77;;
15061;SDS011;7630;50.306;8.566;2022-12-18T22:17:32;57.73;;;38.53;;
15061;SDS011;7630;50.306;8.566;2022-12-18T22:21:34;63.93;;;38.63;;
15061;SDS011;7630;50.306;8.566;2022-12-18T22:25:37;58.73;;;39.07;;
15061;SDS011;7630;50.306;8.566;2022-12-18T22:29:40;67.20;;;40.70;;
15061;SDS011;7630;50.306;8.566;2022-12-18T22:33:58;62.53;;;38.13;;
15061;SDS011;7630;50.306;8.566;2022-12-18T22:38:02;65.40;;;42.10;;
15061;SDS011;7630;50.306;8.566;2022-12-18T22:42:04;60.80;;;40.13;;
15061;SDS011;7630;50.306;8.566;2022-12-18T22:46:06;57.80;;;38.10;;
15061;SDS011;7630;50.306;8.566;2022-12-18T22:50:12;67.23;;;40.07;;
15061;SDS011;7630;50.306;8.566;2022-12-18T22:54:15;62.27;;;39.90;;
15061;SDS011;7630;50.306;8.566;2022-12-18T22:58:16;67.33;;;41.60;;
15061;SDS011;7630;50.306;8.566;2022-12-18T23:02:19;56.97;;;39.57;;
15061;SDS011;7630;50.306;8.566;2022-12-18T23:06:22;57.43;;;35.63;;
15061;SDS011;7630;50.306;8.566;2022-12-18T23:10:24;65.80;;;42.70;;
15061;SDS011;7630;50.306;8.566;2022-12-18T23:14:26;63.40;;;40.50;;
15061;SDS011;7630;50.306;8.566;2022-12-18T23:18:28;62.77;;;41.40;;
15061;SDS011;7630;50.306;8.566;2022-12-18T23:22:29;61.07;;;38.67;;
15061;SDS011;7630;50.306;8.566;2022-12-18T23:26:30;62.20;;;41.53;;
15061;SDS011;7630;50.306;8.566;2022-12-18T23:30:34;60.63;;;40.17;;
15061;SDS011;7630;50.306;8.566;2022-12-18T23:34:36;55.83;;;38.40;;
15061;SDS011;7630;50.306;8.566;2022-12-18T23:38:59;64.57;;;40.00;;
15061;SDS011;7630;50.306;8.566;2022-12-18T23:43:05;63.37;;;39.40;;
15061;SDS011;7630;50.306;8.566;2022-12-18T23:47:07;63.90;;;39.40;;
15061;SDS011;7630;50.306;8.566;2022-12-18T23:51:09;58.50;;;38.70;;
15061;SDS011;7630;50.306;8.566;2022-12-18T23:55:11;66.57;;;40.17;;
15061;SDS011;7630;50.306;8.566;2022-12-18T23:59:12;65.40;;;39.50;;
